Time;durP1;ratioP1;P1;durP2;ratioP2;P2;SDS_P1;SDS_P2;PMS_P1;PMS_P2;Temp;Humidity;BMP_temperature;BMP_pressure;BME280_temperature;BME280_humidity;BME280_pressure;Samples;Min_cycle;Max_cycle;Signal;HPM_P1;HPM_P2
2021/01/16 00:00:33;;;;;;;4.65;4.32;;;19.20;61.70;;;;;;5024702;28;20487;-47
2021/01/16 00:02:58;;;;;;;3.90;3.60;;;19.10;61.90;;;;;;5037181;28;20235;-46
2021/01/16 00:05:25;;;;;;;4.78;4.05;;;19.20;61.90;;;;;;5036335;28;20499;-52
2021/01/16 00:08:04;;;;;;;4.68;4.28;;;19.10;62.60;;;;;;5026665;28;20398;-48
2021/01/16 00:10:30;;;;;;;4.05;3.80;;;19.20;61.90;;;;;;5038129;28;20529;-48
2021/01/16 00:12:56;;;;;;;3.95;3.75;;;19.20;61.90;;;;;;5021382;28;20453;-46
2021/01/16 00:15:22;;;;;;;3.88;3.67;;;19.10;61.90;;;;;;5043917;28;20026;-50
2021/01/16 00:17:57;;;;;;;4.47;4.18;;;19.10;62.10;;;;;;5040938;28;20495;-49
2021/01/16 00:20:23;;;;;;;4.50;4.28;;;19.10;62.10;;;;;;5036957;28;20364;-51
2021/01/16 00:22:49;;;;;;;4.80;3.85;;;19.10;62.10;;;;;;5036943;28;20034;-51
2021/01/16 00:25:14;;;;;;;3.85;3.65;;;19.10;62.10;;;;;;5035694;28;20083;-49
2021/01/16 00:27:40;;;;;;;4.30;3.92;;;19.10;62.20;;;;;;5046455;28;20565;-48
2021/01/16 00:30:07;;;;;;;4.78;4.47;;;19.10;62.20;;;;;;5047069;28;20028;-51
2021/01/16 00:32:32;;;;;;;4.53;4.22;;;19.10;62.30;;;;;;5039634;28;20021;-52
2021/01/16 00:34:58;;;;;;;3.65;3.45;;;19.10;63.10;;;;;;5052064;28;20028;-42
2021/01/16 00:37:23;;;;;;;3.60;3.40;;;19.10;62.30;;;;;;5036790;28;20057;-44
2021/01/16 00:39:49;;;;;;;4.18;3.97;;;19.10;62.40;;;;;;5036724;28;20025;-48
2021/01/16 00:42:15;;;;;;;4.05;3.75;;;19.00;62.40;;;;;;5036266;28;20043;-50
2021/01/16 00:44:40;;;;;;;3.33;3.13;;;19.00;62.50;;;;;;5047589;28;20010;-52
2021/01/16 00:47:06;;;;;;;3.67;3.47;;;19.00;62.40;;;;;;5039327;28;20155;-50
2021/01/16 00:49:31;;;;;;;3.60;3.30;;;19.00;62.50;;;;;;5047428;28;20528;-52
2021/01/16 00:51:57;;;;;;;4.03;3.75;;;19.00;62.30;;;;;;5039620;28;20029;-52
2021/01/16 00:54:22;;;;;;;3.42;3.22;;;19.00;62.50;;;;;;5038338;28;20018;-50
2021/01/16 00:56:48;;;;;;;3.13;2.92;;;19.00;62.50;;;;;;5034031;28;20115;-53
2021/01/16 00:59:13;;;;;;;3.75;3.45;;;19.00;62.20;;;;;;5030169;28;20032;-49
2021/01/16 01:01:39;;;;;;;4.47;3.08;;;19.00;62.40;;;;;;5036556;28;20090;-45
2021/01/16 01:04:07;;;;;;;3.60;3.40;;;19.00;62.30;;;;;;5036647;28;20027;-47
2021/01/16 01:06:32;;;;;;;3.47;3.28;;;19.00;62.20;;;;;;5041896;28;20505;-50
2021/01/16 01:08:58;;;;;;;3.38;3.17;;;19.00;62.10;;;;;;5047164;28;20021;-49
2021/01/16 01:11:24;;;;;;;3.55;3.35;;;19.00;62.10;;;;;;5048046;28;20029;-47
2021/01/16 01:13:52;;;;;;;3.50;3.30;;;18.90;61.90;;;;;;5051145;28;20102;-50
2021/01/16 01:16:18;;;;;;;3.42;3.22;;;18.90;62.00;;;;;;5036759;28;20026;-46
2021/01/16 01:18:43;;;;;;;3.85;3.65;;;18.90;61.90;;;;;;5040933;28;20021;-49
2021/01/16 01:21:09;;;;;;;5.03;3.08;;;18.90;61.90;;;;;;5036650;28;20029;-50
2021/01/16 01:23:34;;;;;;;3.30;3.10;;;18.90;61.80;;;;;;5042095;28;20036;-51
2021/01/16 01:26:00;;;;;;;3.10;3.00;;;18.90;61.90;;;;;;5046933;28;20494;-48
2021/01/16 01:28:26;;;;;;;3.28;2.97;;;18.90;61.80;;;;;;5015218;28;20033;-47
2021/01/16 01:30:51;;;;;;;3.50;3.30;;;18.90;61.90;;;;;;5040895;28;20021;-49
2021/01/16 01:33:17;;;;;;;3.42;3.22;;;18.90;62.60;;;;;;5039333;28;20104;-50
2021/01/16 01:35:43;;;;;;;2.90;2.80;;;18.90;61.80;;;;;;5047268;28;20080;-50
2021/01/16 01:38:15;;;;;;;2.80;2.70;;;18.90;61.70;;;;;;5033680;28;20063;-52
2021/01/16 01:40:41;;;;;;;3.10;2.90;;;18.90;61.80;;;;;;5019304;28;20080;-50
2021/01/16 01:43:06;;;;;;;2.90;2.70;;;18.90;61.70;;;;;;5036427;28;20026;-50
2021/01/16 01:45:32;;;;;;;2.80;2.70;;;18.90;61.70;;;;;;5041180;28;20490;-48
2021/01/16 01:47:57;;;;;;;2.88;2.67;;;18.90;61.50;;;;;;5047263;28;20040;-49
2021/01/16 01:50:23;;;;;;;2.70;2.60;;;18.90;61.70;;;;;;5022768;28;20024;-50
2021/01/16 01:52:52;;;;;;;2.70;2.55;;;18.90;61.50;;;;;;5046921;28;20452;-52
2021/01/16 01:55:17;;;;;;;2.50;2.40;;;18.90;62.30;;;;;;5043159;28;20036;-47
2021/01/16 01:57:44;;;;;;;3.20;2.88;;;18.90;61.50;;;;;;5040827;28;20022;-51
2021/01/16 02:00:12;;;;;;;2.95;2.80;;;18.80;61.30;;;;;;5040467;28;20028;-51
2021/01/16 02:02:37;;;;;;;2.85;2.75;;;18.90;61.50;;;;;;5032112;28;20021;-51
2021/01/16 02:05:06;;;;;;;2.90;2.70;;;18.80;61.40;;;;;;5027092;28;20140;-46
2021/01/16 02:07:37;;;;;;;2.55;2.45;;;18.90;61.50;;;;;;5045853;28;20447;-50
2021/01/16 02:10:09;;;;;;;3.10;2.90;;;18.90;61.40;;;;;;5037931;28;20025;-48
2021/01/16 02:12:35;;;;;;;3.38;3.17;;;18.90;61.50;;;;;;5035492;28;20095;-48
2021/01/16 02:15:20;;;;;;;2.72;2.53;;;18.80;61.30;;;;;;5038928;28;20916;-50
2021/01/16 02:17:46;;;;;;;;;;;18.80;61.30;;;;;;5042936;28;20040;-47
2021/01/16 02:20:14;;;;;;;2.60;2.50;;;18.80;61.40;;;;;;5036903;28;19905;-51
2021/01/16 02:23:03;;;;;;;2.65;2.55;;;18.80;61.40;;;;;;5032520;28;20041;-47
2021/01/16 02:26:09;;;;;;;2.60;2.40;;;18.80;61.40;;;;;;5038064;28;20055;-49
2021/01/16 02:28:35;;;;;;;2.85;2.75;;;18.80;61.40;;;;;;4989006;28;20058;-49
2021/01/16 02:31:02;;;;;;;2.67;2.58;;;18.80;61.40;;;;;;4984623;28;20027;-49
2021/01/16 02:33:27;;;;;;;2.30;2.20;;;18.80;61.40;;;;;;4983855;28;20051;-48
2021/01/16 02:36:01;;;;;;;2.33;2.22;;;18.80;61.40;;;;;;4982626;28;20034;-47
2021/01/16 02:38:51;;;;;;;2.50;2.40;;;18.80;61.30;;;;;;4985150;28;20050;-51
2021/01/16 02:41:34;;;;;;;2.50;2.40;;;18.80;61.30;;;;;;4990612;28;20117;-46
2021/01/16 02:44:26;;;;;;;2.40;2.30;;;18.80;61.30;;;;;;4990701;28;20034;-47
2021/01/16 02:46:58;;;;;;;2.45;2.35;;;18.80;61.40;;;;;;4990437;28;20578;-50
2021/01/16 02:49:29;;;;;;;2.38;2.28;;;18.80;61.40;;;;;;4956285;28;20062;-48
2021/01/16 02:52:04;;;;;;;2.53;2.33;;;18.70;61.40;;;;;;4980588;28;20050;-48
2021/01/16 02:54:38;;;;;;;2.38;2.28;;;18.70;61.40;;;;;;4985191;28;20030;-51
2021/01/16 02:57:05;;;;;;;2.28;2.17;;;18.70;61.50;;;;;;4985960;28;20066;-48
2021/01/16 02:59:35;;;;;;;2.60;2.50;;;18.70;61.50;;;;;;4990537;28;20034;-48
2021/01/16 03:02:01;;;;;;;2.50;2.40;;;18.70;61.50;;;;;;4976616;28;20396;-48
2021/01/16 03:04:27;;;;;;;2.30;2.20;;;18.70;61.30;;;;;;4973458;28;20554;-49
2021/01/16 03:06:52;;;;;;;2.13;2.03;;;18.70;61.40;;;;;;5042276;28;20037;-48
2021/01/16 03:09:18;;;;;;;2.28;2.17;;;18.70;61.50;;;;;;5021426;28;20034;-49
2021/01/16 03:11:44;;;;;;;2.50;2.30;;;18.70;61.40;;;;;;5019320;28;20037;-50
2021/01/16 03:14:10;;;;;;;2.40;2.30;;;18.70;61.40;;;;;;5036532;28;20028;-48
2021/01/16 03:16:38;;;;;;;1.90;1.80;;;18.70;61.40;;;;;;5012804;28;20029;-49
2021/01/16 03:19:03;;;;;;;2.40;2.30;;;18.70;61.30;;;;;;5041396;28;20041;-51
2021/01/16 03:21:29;;;;;;;2.28;2.17;;;18.70;61.40;;;;;;5019116;28;20475;-46
2021/01/16 03:23:54;;;;;;;2.22;2.13;;;18.70;61.30;;;;;;5050054;28;20098;-50
2021/01/16 03:26:20;;;;;;;2.30;2.20;;;18.70;61.40;;;;;;5035412;28;20032;-46
2021/01/16 03:28:45;;;;;;;2.33;2.22;;;18.70;62.30;;;;;;5038220;28;20030;-48
2021/01/16 03:31:11;;;;;;;2.40;2.30;;;18.70;61.50;;;;;;5037686;28;20018;-51
2021/01/16 03:33:37;;;;;;;2.42;2.33;;;18.70;61.50;;;;;;5042057;28;20087;-48
2021/01/16 03:36:02;;;;;;;2.67;2.47;;;18.60;61.50;;;;;;5037749;28;20078;-47
2021/01/16 03:38:28;;;;;;;2.20;2.10;;;18.60;61.60;;;;;;5033152;28;20049;-48
2021/01/16 03:40:53;;;;;;;2.08;1.98;;;18.60;61.50;;;;;;5038107;28;20025;-53
2021/01/16 03:43:19;;;;;;;1.80;1.70;;;18.60;61.50;;;;;;5046797;28;20037;-49
2021/01/16 03:45:45;;;;;;;2.20;2.10;;;18.60;61.50;;;;;;5047040;28;20017;-47
2021/01/16 03:48:10;;;;;;;2.40;2.20;;;18.60;61.50;;;;;;5046873;28;20482;-47
2021/01/16 03:50:36;;;;;;;2.50;2.30;;;18.60;61.60;;;;;;5033839;28;20021;-49
2021/01/16 03:53:01;;;;;;;2.42;2.10;;;18.60;61.70;;;;;;5036662;28;20402;-47
2021/01/16 03:55:27;;;;;;;2.40;2.30;;;18.60;61.70;;;;;;5022407;28;20030;-48
2021/01/16 03:57:52;;;;;;;2.20;2.10;;;18.60;61.60;;;;;;5044210;28;20124;-50
2021/01/16 04:00:18;;;;;;;1.92;1.83;;;18.60;61.60;;;;;;5045515;28;20029;-49
2021/01/16 04:02:44;;;;;;;2.20;2.10;;;18.60;61.60;;;;;;5048208;28;20112;-50
2021/01/16 04:05:10;;;;;;;2.00;1.90;;;18.60;61.70;;;;;;5049065;28;20029;-47
2021/01/16 04:07:35;;;;;;;2.40;2.30;;;18.60;61.60;;;;;;5048448;28;20123;-50
2021/01/16 04:10:01;;;;;;;2.47;2.38;;;18.60;61.60;;;;;;5040070;28;20112;-47
2021/01/16 04:12:30;;;;;;;2.15;2.05;;;18.60;61.60;;;;;;5038196;28;20032;-51
2021/01/16 04:14:56;;;;;;;2.38;2.28;;;18.60;61.50;;;;;;5049045;28;20029;-48
2021/01/16 04:17:21;;;;;;;2.28;2.17;;;18.60;61.40;;;;;;5038814;28;20033;-44
2021/01/16 04:19:47;;;;;;;2.53;2.08;;;18.60;61.60;;;;;;5037465;28;20376;-49
2021/01/16 04:22:12;;;;;;;2.10;1.98;;;18.60;61.40;;;;;;5046952;28;20029;-52
2021/01/16 04:24:38;;;;;;;2.13;2.03;;;18.60;61.50;;;;;;5042995;28;20021;-50
2021/01/16 04:27:04;;;;;;;2.20;2.10;;;18.60;61.50;;;;;;5036713;28;20066;-52
2021/01/16 04:29:29;;;;;;;1.92;1.83;;;18.60;61.50;;;;;;5032337;28;20029;-49
2021/01/16 04:31:55;;;;;;;2.20;2.10;;;18.60;61.60;;;;;;5047788;28;20044;-49
2021/01/16 04:34:20;;;;;;;1.95;1.85;;;18.60;61.40;;;;;;5049830;28;20024;-49
2021/01/16 04:36:46;;;;;;;2.00;1.90;;;18.60;61.50;;;;;;5027363;28;20028;-50
2021/01/16 04:39:12;;;;;;;1.77;1.67;;;18.60;61.50;;;;;;5045598;28;20029;-52
2021/01/16 04:41:37;;;;;;;2.55;2.15;;;18.60;61.50;;;;;;5048564;28;20070;-50
2021/01/16 04:44:04;;;;;;;2.15;2.05;;;18.60;61.50;;;;;;5017456;28;20096;-50
2021/01/16 04:46:29;;;;;;;1.90;1.80;;;18.60;61.50;;;;;;5044376;28;20037;-52
2021/01/16 04:49:05;;;;;;;2.00;1.90;;;18.60;61.50;;;;;;5025303;28;20025;-51
2021/01/16 04:51:35;;;;;;;1.65;1.65;;;18.60;61.60;;;;;;5036407;28;20388;-51
2021/01/16 04:54:02;;;;;;;2.30;2.20;;;18.50;61.60;;;;;;5036865;28;20032;-53
2021/01/16 04:56:33;;;;;;;2.10;1.90;;;18.60;61.60;;;;;;5032308;28;20508;-48
2021/01/16 04:58:59;;;;;;;2.25;2.15;;;18.60;61.60;;;;;;5048059;28;20113;-48
2021/01/16 05:01:26;;;;;;;1.85;1.75;;;18.50;61.50;;;;;;5027346;28;20111;-51
2021/01/16 05:03:51;;;;;;;2.00;1.90;;;18.50;61.60;;;;;;5019537;28;20056;-49
2021/01/16 05:06:18;;;;;;;1.95;1.85;;;18.50;62.00;;;;;;5038968;28;20447;-50
2021/01/16 05:08:43;;;;;;;2.55;1.77;;;18.50;61.80;;;;;;5048199;28;20041;-51
2021/01/16 05:11:24;;;;;;;2.05;1.95;;;18.50;61.90;;;;;;5048250;28;20064;-51
2021/01/16 05:14:09;;;;;;;1.85;1.75;;;18.40;61.90;;;;;;5036325;28;20052;-48
2021/01/16 05:16:37;;;;;;;;;;;18.50;62.00;;;;;;5031081;28;20029;-50
2021/01/16 05:19:03;;;;;;;2.08;1.98;;;18.40;61.90;;;;;;5024976;28;19913;-51
2021/01/16 05:21:28;;;;;;;2.08;1.98;;;18.40;61.90;;;;;;5026217;28;20479;-50
2021/01/16 05:23:55;;;;;;;1.83;1.73;;;18.40;62.00;;;;;;5015035;28;20063;-51
2021/01/16 05:26:20;;;;;;;1.92;1.83;;;18.40;62.00;;;;;;4998512;28;20037;-48
2021/01/16 05:28:46;;;;;;;2.00;1.90;;;18.40;63.00;;;;;;5033884;28;20033;-49
2021/01/16 05:31:11;;;;;;;2.35;2.25;;;18.40;62.10;;;;;;5013842;28;20108;-47
2021/01/16 05:33:38;;;;;;;2.10;2.00;;;18.40;62.20;;;;;;5042912;28;20387;-49
2021/01/16 05:36:06;;;;;;;1.80;1.73;;;18.40;62.30;;;;;;5035613;28;20025;-48
2021/01/16 05:38:39;;;;;;;2.17;2.08;;;18.40;62.20;;;;;;5043122;28;20067;-50
2021/01/16 05:41:12;;;;;;;2.03;1.92;;;18.40;62.30;;;;;;5045267;28;20090;-49
2021/01/16 05:43:38;;;;;;;2.03;1.92;;;18.30;62.30;;;;;;5046469;28;20017;-51
2021/01/16 05:46:15;;;;;;;1.85;1.75;;;18.40;62.40;;;;;;5042888;28;20398;-49
2021/01/16 05:48:40;;;;;;;1.83;1.70;;;18.30;62.50;;;;;;5043206;28;20030;-49
2021/01/16 05:51:06;;;;;;;1.70;1.60;;;18.30;62.40;;;;;;5039902;28;20517;-50
2021/01/16 05:53:31;;;;;;;2.10;2.00;;;18.30;62.40;;;;;;5052556;28;20025;-50
2021/01/16 05:55:58;;;;;;;1.80;1.70;;;18.30;62.40;;;;;;5048209;28;20030;-49
2021/01/16 05:58:32;;;;;;;1.85;1.75;;;18.30;62.40;;;;;;5049092;28;20032;-51
2021/01/16 06:00:58;;;;;;;1.70;1.60;;;18.30;62.40;;;;;;5035050;28;20032;-51
2021/01/16 06:03:23;;;;;;;1.65;1.63;;;18.30;62.30;;;;;;5019590;28;20508;-49
2021/01/16 06:05:50;;;;;;;1.90;1.80;;;18.30;62.30;;;;;;5033324;28;20108;-51
2021/01/16 06:08:16;;;;;;;1.67;1.58;;;18.30;62.20;;;;;;5047914;28;20048;-48
2021/01/16 06:10:42;;;;;;;1.60;1.50;;;18.30;62.20;;;;;;5050886;28;20020;-51
2021/01/16 06:13:16;;;;;;;1.88;1.77;;;18.30;62.20;;;;;;5047879;28;20033;-45
2021/01/16 06:15:43;;;;;;;2.00;1.90;;;18.30;62.30;;;;;;5031719;28;20021;-47
2021/01/16 06:18:14;;;;;;;1.75;1.67;;;18.30;62.30;;;;;;5045819;28;20041;-50
2021/01/16 06:20:39;;;;;;;1.85;1.75;;;18.30;62.40;;;;;;5033746;28;20445;-49
2021/01/16 06:23:13;;;;;;;1.70;1.60;;;18.30;62.30;;;;;;5016192;28;20025;-49
2021/01/16 06:25:39;;;;;;;1.67;1.67;;;18.30;62.20;;;;;;5035988;28;20024;-50
2021/01/16 06:28:05;;;;;;;1.90;1.80;;;18.30;61.90;;;;;;5010646;28;20060;-51
2021/01/16 06:30:30;;;;;;;2.00;1.90;;;18.30;61.70;;;;;;5025711;28;20037;-51
2021/01/16 06:32:56;;;;;;;2.08;1.67;;;18.30;62.00;;;;;;5017875;28;20079;-48
2021/01/16 06:35:27;;;;;;;1.60;1.50;;;18.30;61.90;;;;;;5028097;28;20026;-49
2021/01/16 06:37:52;;;;;;;1.70;1.60;;;18.30;62.00;;;;;;5032902;28;20048;-48
2021/01/16 06:40:31;;;;;;;1.52;1.52;;;18.30;61.70;;;;;;5050788;28;20147;-52
2021/01/16 06:42:58;;;;;;;1.88;1.77;;;18.30;61.90;;;;;;5042291;28;20406;-51
2021/01/16 06:45:24;;;;;;;1.55;1.48;;;18.40;62.10;;;;;;5040144;28;20024;-48
2021/01/16 06:48:10;;;;;;;2.90;1.98;;;18.40;61.70;;;;;;5050309;28;20465;-52
2021/01/16 06:50:36;;;;;;;4.80;1.60;;;18.30;61.50;;;;;;5036129;28;20047;-49
2021/01/16 06:53:01;;;;;;;1.80;1.70;;;18.30;62.10;;;;;;5048333;28;20020;-51
2021/01/16 06:55:27;;;;;;;2.00;1.90;;;18.30;62.20;;;;;;5041418;28;20119;-51
2021/01/16 06:57:52;;;;;;;2.00;1.90;;;18.30;62.30;;;;;;5013218;28;20173;-50
2021/01/16 07:00:19;;;;;;;1.67;1.63;;;18.30;62.50;;;;;;5033266;28;20029;-53
2021/01/16 07:02:46;;;;;;;2.10;2.00;;;18.30;62.40;;;;;;5051277;28;20111;-49
2021/01/16 07:05:20;;;;;;;3.08;2.08;;;18.20;62.50;;;;;;5051421;28;20502;-52
2021/01/16 07:07:47;;;;;;;2.23;2.03;;;18.20;62.50;;;;;;5051640;28;20037;-51
2021/01/16 07:10:14;;;;;;;1.58;1.58;;;18.20;62.50;;;;;;5048211;28;20122;-52
2021/01/16 07:12:48;;;;;;;1.77;1.67;;;18.20;62.60;;;;;;5051075;28;20021;-51
2021/01/16 07:15:14;;;;;;;1.52;1.45;;;18.20;62.60;;;;;;5048600;28;20060;-51
2021/01/16 07:17:40;;;;;;;1.80;1.70;;;18.20;62.60;;;;;;5050605;28;20553;-51
2021/01/16 07:20:07;;;;;;;1.90;1.80;;;18.20;62.70;;;;;;5017351;28;20136;-54
2021/01/16 07:22:34;;;;;;;1.77;1.67;;;18.20;62.70;;;;;;5048177;28;20025;-51
2021/01/16 07:25:01;;;;;;;1.80;1.70;;;18.20;62.70;;;;;;5030175;28;20530;-51
2021/01/16 07:27:27;;;;;;;2.60;1.90;;;18.10;62.80;;;;;;5043640;28;20029;-50
2021/01/16 07:29:56;;;;;;;2.00;1.90;;;18.20;62.90;;;;;;5051468;28;20025;-49
2021/01/16 07:32:29;;;;;;;1.80;1.70;;;18.20;62.80;;;;;;5052510;28;20075;-49
2021/01/16 07:34:54;;;;;;;1.90;1.80;;;18.10;62.90;;;;;;5016027;28;20032;-50
2021/01/16 07:37:20;;;;;;;2.47;1.50;;;18.10;62.80;;;;;;5011375;28;20647;-45
2021/01/16 07:39:46;;;;;;;1.80;1.70;;;18.10;63.00;;;;;;5050653;28;20021;-49
2021/01/16 07:42:13;;;;;;;1.83;1.73;;;18.10;62.90;;;;;;5050683;28;20033;-52
2021/01/16 07:44:45;;;;;;;1.70;1.60;;;18.10;63.00;;;;;;5050709;28;20394;-50
2021/01/16 07:47:21;;;;;;;1.40;1.30;;;18.10;63.00;;;;;;5050728;28;20033;-48
2021/01/16 07:49:52;;;;;;;1.75;1.65;;;18.10;62.90;;;;;;5050027;28;20033;-47
2021/01/16 07:52:18;;;;;;;1.85;1.73;;;18.10;63.00;;;;;;5046207;28;20453;-44
2021/01/16 07:54:44;;;;;;;1.70;1.60;;;18.10;63.00;;;;;;5008629;28;20060;-47
2021/01/16 07:57:12;;;;;;;1.50;1.50;;;18.10;62.90;;;;;;5011919;28;20111;-56
2021/01/16 07:59:43;;;;;;;1.83;1.73;;;18.10;62.50;;;;;;5031515;28;20426;-51
2021/01/16 08:02:26;;;;;;;1.50;1.50;;;18.10;62.60;;;;;;5016261;28;20036;-48
2021/01/16 08:05:18;;;;;;;1.65;1.63;;;18.10;62.40;;;;;;5043509;28;20052;-51
2021/01/16 08:07:52;;;;;;;2.88;1.67;;;18.10;62.60;;;;;;5034869;28;20667;-47
2021/01/16 08:10:18;;;;;;;1.90;1.80;;;18.10;62.70;;;;;;5048782;28;20022;-48
2021/01/16 08:12:46;;;;;;;1.65;1.55;;;18.20;61.90;;;;;;5031405;28;20031;-52
2021/01/16 08:15:12;;;;;;;4.95;1.90;;;18.20;62.30;;;;;;5030869;28;20023;-50
2021/01/16 08:17:40;;;;;;;1.70;1.60;;;18.20;61.90;;;;;;5012480;28;20024;-48
2021/01/16 08:20:27;;;;;;;1.60;1.60;;;18.20;62.40;;;;;;5017264;28;20021;-47
2021/01/16 08:22:55;;;;;;;2.08;1.40;;;18.20;62.70;;;;;;5020505;28;20498;-45
2021/01/16 08:25:26;;;;;;;1.95;1.70;;;18.20;62.70;;;;;;5030903;28;20478;-47
2021/01/16 08:27:55;;;;;;;1.40;1.40;;;18.20;62.60;;;;;;5045798;28;20044;-45
2021/01/16 08:30:22;;;;;;;1.85;1.75;;;18.20;62.70;;;;;;5045919;28;20116;-48
2021/01/16 08:32:58;;;;;;;1.38;1.38;;;18.20;62.70;;;;;;5048561;28;20025;-48
2021/01/16 08:35:25;;;;;;;1.85;1.75;;;18.20;62.60;;;;;;5033097;28;20048;-46
2021/01/16 08:37:51;;;;;;;1.58;1.48;;;18.20;62.50;;;;;;5051650;28;20049;-46
2021/01/16 08:40:34;;;;;;;2.00;1.90;;;18.20;62.90;;;;;;5045550;28;20051;-47
2021/01/16 08:43:00;;;;;;;2.40;1.63;;;18.20;62.70;;;;;;5045665;28;20029;-48
2021/01/16 08:45:25;;;;;;;1.70;1.50;;;18.20;62.50;;;;;;5045410;28;20021;-47
2021/01/16 08:47:55;;;;;;;1.48;1.38;;;18.20;62.60;;;;;;5048329;28;20037;-48
2021/01/16 08:50:21;;;;;;;1.55;1.45;;;18.20;62.60;;;;;;5033692;28;20032;-49
2021/01/16 08:52:47;;;;;;;2.88;1.65;;;18.20;62.60;;;;;;5047969;28;20043;-45
2021/01/16 08:55:12;;;;;;;1.92;1.58;;;18.20;62.50;;;;;;5038591;28;20475;-46
2021/01/16 08:57:38;;;;;;;2.60;1.42;;;18.30;62.40;;;;;;5038702;28;20017;-49
2021/01/16 09:00:20;;;;;;;1.70;1.60;;;18.20;62.30;;;;;;5046866;28;20080;-48
2021/01/16 09:03:08;;;;;;;1.77;1.67;;;18.20;62.40;;;;;;5017059;28;20029;-48
2021/01/16 09:05:37;;;;;;;1.80;1.70;;;18.20;62.30;;;;;;5045360;28;20029;-44
2021/01/16 09:08:04;;;;;;;1.55;1.45;;;18.20;62.40;;;;;;5047849;28;20065;-45
2021/01/16 09:10:31;;;;;;;1.77;1.67;;;18.20;62.50;;;;;;5028219;28;20379;-50
2021/01/16 09:12:58;;;;;;;1.63;1.52;;;18.20;62.40;;;;;;5049629;28;20099;-46
2021/01/16 09:15:35;;;;;;;1.30;1.30;;;18.20;62.40;;;;;;5050145;28;20025;-50
2021/01/16 09:18:07;;;;;;;7.93;1.50;;;18.20;62.40;;;;;;5046366;28;20525;-48
2021/01/16 09:20:35;;;;;;;1.80;1.70;;;18.20;62.20;;;;;;5045786;28;20051;-47
2021/01/16 09:23:18;;;;;;;2.35;1.60;;;18.20;62.70;;;;;;5046563;28;20072;-46
2021/01/16 09:25:53;;;;;;;3.87;1.80;;;18.20;62.50;;;;;;5029802;28;20033;-49
2021/01/16 09:29:01;;;;;;;1.55;1.45;;;18.10;63.10;;;;;;5045525;28;20029;-47
2021/01/16 09:31:39;;;;;;;4.45;1.67;;;18.10;63.30;;;;;;4967818;28;20027;-47
2021/01/16 09:34:17;;;;;;;1.65;1.55;;;18.10;63.60;;;;;;4969122;28;20031;-45
2021/01/16 09:36:58;;;;;;;1.77;1.40;;;18.00;63.40;;;;;;4965576;28;20046;-46
2021/01/16 09:39:32;;;;;;;1.75;1.65;;;18.00;63.90;;;;;;4969197;28;20539;-50
2021/01/16 09:42:19;;;;;;;1.95;1.48;;;18.00;63.70;;;;;;4967175;28;20133;-51
2021/01/16 09:44:51;;;;;;;3.35;1.90;;;18.00;63.80;;;;;;4969182;28;20027;-47
2021/01/16 09:47:26;;;;;;;1.70;1.52;;;18.00;63.80;;;;;;4969421;28;20054;-50
2021/01/16 09:49:51;;;;;;;1.77;1.10;;;18.00;63.90;;;;;;4970198;28;20042;-50
2021/01/16 09:52:17;;;;;;;2.53;1.30;;;18.00;63.60;;;;;;4967448;28;20425;-48
2021/01/16 09:54:43;;;;;;;1.60;1.50;;;18.10;63.10;;;;;;4955366;28;20109;-52
2021/01/16 09:57:08;;;;;;;1.30;1.30;;;18.00;62.80;;;;;;4970154;28;20658;-45
2021/01/16 09:59:34;;;;;;;1.52;1.42;;;18.10;63.30;;;;;;4969767;28;20194;-50
2021/01/16 10:02:12;;;;;;;1.80;1.70;;;18.10;63.30;;;;;;5000189;28;20041;-52
2021/01/16 10:04:44;;;;;;;1.85;1.75;;;18.10;63.00;;;;;;5046637;28;20555;-55
2021/01/16 10:07:11;;;;;;;2.38;1.73;;;18.10;63.80;;;;;;5037113;28;20541;-53
2021/01/16 10:09:47;;;;;;;1.63;1.52;;;18.10;63.00;;;;;;5018686;28;20029;-53
2021/01/16 10:12:35;;;;;;;1.50;1.40;;;18.00;62.50;;;;;;5032216;28;20060;-54
2021/01/16 10:15:18;;;;;;;2.55;1.70;;;18.00;62.80;;;;;;5044750;28;20029;-51
2021/01/16 10:17:51;;;;;;;2.20;1.52;;;18.00;62.40;;;;;;5038531;28;20037;-54
2021/01/16 10:20:17;;;;;;;3.60;1.48;;;18.00;62.40;;;;;;5046005;28;20115;-55
2021/01/16 10:22:52;;;;;;;1.10;1.05;;;18.00;62.40;;;;;;5044168;28;20068;-57
2021/01/16 10:25:19;;;;;;;1.60;1.50;;;18.10;62.10;;;;;;5045719;28;20036;-53
2021/01/16 10:27:49;;;;;;;1.50;1.40;;;18.10;62.20;;;;;;4695182;28;10000652;-56
2021/01/16 10:30:29;;;;;;;1.42;1.33;;;18.00;62.50;;;;;;5043314;28;20037;-51
2021/01/16 10:32:55;;;;;;;2.05;1.50;;;18.00;62.60;;;;;;5042731;28;20035;-55
2021/01/16 10:35:22;;;;;;;2.53;1.27;;;18.00;62.50;;;;;;5029214;28;20037;-55
2021/01/16 10:37:47;;;;;;;1.40;1.35;;;18.00;62.50;;;;;;5049322;28;20041;-48
2021/01/16 10:40:13;;;;;;;1.50;1.40;;;18.00;62.50;;;;;;5047096;28;20098;-42
2021/01/16 10:42:47;;;;;;;1.77;1.67;;;18.00;62.40;;;;;;5046943;28;20028;-51
2021/01/16 10:45:14;;;;;;;1.65;1.55;;;18.00;61.80;;;;;;5047283;28;20025;-54
2021/01/16 10:47:41;;;;;;;4.65;1.55;;;18.00;62.20;;;;;;5030227;28;20033;-55
2021/01/16 10:50:08;;;;;;;2.00;1.63;;;18.00;62.20;;;;;;5047918;28;20053;-52
2021/01/16 10:52:34;;;;;;;1.60;1.50;;;17.90;62.00;;;;;;5045802;28;20406;-37
2021/01/16 10:55:00;;;;;;;1.42;1.30;;;18.00;62.00;;;;;;5043496;28;20045;-48
2021/01/16 10:57:58;;;;;;;1.30;1.20;;;18.00;62.00;;;;;;5043896;28;20045;-42
2021/01/16 11:00:24;;;;;;;1.48;1.38;;;18.00;61.80;;;;;;4947505;28;20054;-53
2021/01/16 11:02:50;;;;;;;2.95;1.50;;;18.00;61.70;;;;;;4962275;28;20086;-46
2021/01/16 11:05:16;;;;;;;1.42;1.42;;;18.00;62.10;;;;;;4962906;28;20063;-41
2021/01/16 11:07:42;;;;;;;5.70;1.70;;;18.00;61.80;;;;;;4963708;28;20730;-49
2021/01/16 11:10:09;;;;;;;2.45;1.80;;;18.00;61.80;;;;;;4963798;28;20130;-49
2021/01/16 11:12:34;;;;;;;1.33;1.23;;;18.00;61.70;;;;;;4956818;28;20043;-52
2021/01/16 11:15:00;;;;;;;1.60;1.50;;;18.00;61.80;;;;;;4962173;28;20549;-49
2021/01/16 11:17:45;;;;;;;2.38;1.35;;;18.00;61.90;;;;;;4962797;28;20058;-52
2021/01/16 11:20:21;;;;;;;1.55;1.45;;;17.90;61.90;;;;;;4961333;28;20420;-52
2021/01/16 11:23:24;;;;;;;1.63;1.40;;;17.90;61.90;;;;;;4954776;28;20082;-50
2021/01/16 11:25:49;;;;;;;1.58;1.48;;;18.00;62.30;;;;;;4969490;28;20043;-53
2021/01/16 11:28:24;;;;;;;1.02;1.02;;;18.00;61.50;;;;;;4959400;28;20065;-48
2021/01/16 11:31:04;;;;;;;2.53;1.58;;;18.00;61.40;;;;;;4964468;28;20532;-52
2021/01/16 11:33:30;;;;;;;1.40;1.30;;;18.00;61.40;;;;;;4972348;28;20055;-48
2021/01/16 11:36:15;;;;;;;1.60;1.50;;;18.00;61.40;;;;;;4991312;28;20068;-46
2021/01/16 11:38:50;;;;;;;1.55;1.45;;;18.10;60.50;;;;;;5045141;28;20056;-48
2021/01/16 11:41:54;;;;;;;1.40;1.30;;;18.10;61.30;;;;;;5039789;28;20048;-43
2021/01/16 11:44:20;;;;;;;2.33;1.90;;;18.10;61.20;;;;;;5044608;28;20041;-46
2021/01/16 11:46:51;;;;;;;1.63;1.52;;;18.10;61.10;;;;;;5047532;28;20033;-50
2021/01/16 11:49:17;;;;;;;3.28;1.90;;;18.10;60.80;;;;;;5024165;28;20426;-50
2021/01/16 11:51:42;;;;;;;3.05;1.75;;;18.10;62.00;;;;;;5046417;28;20037;-46
2021/01/16 11:54:08;;;;;;;2.03;1.83;;;18.00;61.70;;;;;;5026410;28;20667;-44
2021/01/16 11:56:34;;;;;;;1.70;1.60;;;18.00;60.90;;;;;;5024362;28;20124;-50
2021/01/16 11:58:59;;;;;;;1.55;1.45;;;18.10;60.90;;;;;;5014278;28;20043;-47
2021/01/16 12:01:25;;;;;;;1.52;1.42;;;18.10;60.80;;;;;;5029470;28;20502;-52
2021/01/16 12:03:50;;;;;;;4.47;1.65;;;18.20;61.70;;;;;;5032422;28;20044;-49
2021/01/16 12:06:17;;;;;;;1.40;1.30;;;18.20;61.30;;;;;;5013579;28;20118;-51
2021/01/16 12:08:44;;;;;;;2.58;1.45;;;18.20;61.30;;;;;;5025145;28;20168;-47
2021/01/16 12:11:10;;;;;;;1.40;1.40;;;18.20;61.80;;;;;;5048141;28;20033;-51
2021/01/16 12:13:36;;;;;;;1.50;1.40;;;18.20;61.80;;;;;;5046965;28;20039;-44
2021/01/16 12:16:02;;;;;;;1.42;1.33;;;18.20;61.60;;;;;;5025634;28;20119;-44
2021/01/16 12:18:27;;;;;;;1.67;1.58;;;18.20;62.10;;;;;;5042517;28;20429;-48
2021/01/16 12:20:53;;;;;;;1.75;1.65;;;18.20;62.30;;;;;;5046297;28;20542;-44
2021/01/16 12:23:19;;;;;;;3.17;1.60;;;18.20;62.00;;;;;;5047312;28;20045;-49
2021/01/16 12:25:49;;;;;;;2.60;1.58;;;18.20;61.70;;;;;;5050337;28;20048;-48
2021/01/16 12:28:15;;;;;;;1.90;1.80;;;18.20;61.90;;;;;;5028685;28;20053;-46
2021/01/16 12:30:45;;;;;;;2.35;1.50;;;18.20;62.00;;;;;;5012891;28;20044;-45
2021/01/16 12:33:19;;;;;;;1.80;1.70;;;18.10;62.10;;;;;;5043649;28;20048;-44
2021/01/16 12:35:45;;;;;;;2.05;1.67;;;18.20;62.00;;;;;;5021854;28;20134;-45
2021/01/16 12:38:11;;;;;;;3.20;1.67;;;18.10;62.00;;;;;;5042210;28;20100;-43
2021/01/16 12:40:36;;;;;;;1.50;1.40;;;18.10;61.90;;;;;;5017587;28;20037;-45
2021/01/16 12:43:02;;;;;;;3.53;1.50;;;18.10;62.30;;;;;;5042427;28;20049;-42
2021/01/16 12:45:28;;;;;;;1.70;1.60;;;18.10;62.50;;;;;;5026312;28;20037;-44
2021/01/16 12:47:55;;;;;;;1.73;1.30;;;18.10;62.70;;;;;;5021558;28;20061;-45
2021/01/16 12:50:24;;;;;;;2.40;1.80;;;18.10;62.60;;;;;;5016702;28;20426;-48
2021/01/16 12:52:51;;;;;;;2.50;1.63;;;18.20;63.30;;;;;;5025716;28;20594;-50
2021/01/16 12:55:21;;;;;;;1.25;1.15;;;18.20;63.20;;;;;;5025882;28;20053;-46
2021/01/16 12:57:47;;;;;;;1.77;1.40;;;18.20;63.20;;;;;;5025259;28;20041;-45